Time,TemperatureF,DewpointF,PressureIn,WindDirection,WindDirectionDegrees,WindSpeedMPH,WindSpeedGustMPH,Humidity,HourlyPrecipIn,Conditions,Clouds,dailyrainin,SolarRadiationWatts/m^2,SoftwareType,DateUTC
2013-08-20 00:08:00,77.6,76.0,30.08,SSE,153,0.0,0.0,95,0.00,,,0.00,0,weatherlink.com 1.10,2013-08-20 04:08:00,
2013-08-20 00:23:00,77.6,76.0,30.08,SSE,153,0.0,0.0,95,0.00,,,0.00,0,weatherlink.com 1.10,2013-08-20 04:23:00,
2013-08-20 00:38:00,77.6,76.0,30.08,SSE,153,0.0,0.0,96,0.00,,,0.00,0,weatherlink.com 1.10,2013-08-20 04:38:00,
2013-08-20 00:53:00,77.4,76.0,30.08,SSE,153,0.0,0.0,95,0.00,,,0.00,0,weatherlink.com 1.10,2013-08-20 04:53:00,
2013-08-20 01:08:00,77.3,76.0,30.07,SSE,153,0.0,0.0,96,0.00,,,0.00,0,weatherlink.com 1.10,2013-08-20 05:08:00,
2013-08-20 01:23:00,77.4,77.0,30.07,SSE,153,0.0,1.0,97,0.00,,,0.00,0,weatherlink.com 1.10,2013-08-20 05:23:00,
2013-08-20 01:38:00,77.6,76.0,30.06,SSE,153,2.0,5.0,96,0.00,,,0.00,0,weatherlink.com 1.10,2013-08-20 05:38:00,
2013-08-20 01:53:00,77.5,76.0,30.06,SSE,153,1.0,5.0,94,0.00,,,0.00,0,weatherlink.com 1.10,2013-08-20 05:53:00,
2013-08-20 02:08:00,77.4,75.0,30.05,SSE,153,0.0,2.0,93,0.00,,,0.00,0,weatherlink.com 1.10,2013-08-20 06:08:00,
2013-08-20 02:23:00,77.1,75.0,30.05,SSE,153,0.0,0.0,93,0.00,,,0.00,0,weatherlink.com 1.10,2013-08-20 06:23:00,
2013-08-20 02:38:00,76.8,75.0,30.04,SSE,153,0.0,0.0,93,0.00,,,0.00,0,weatherlink.com 1.10,2013-08-20 06:38:00,
2013-08-20 02:53:00,76.5,75.0,30.04,SSE,153,0.0,0.0,94,0.00,,,0.00,0,weatherlink.com 1.10,2013-08-20 06:53:00,
2013-08-20 03:08:00,76.2,75.0,30.04,SSE,153,0.0,0.0,95,0.00,,,0.00,0,weatherlink.com 1.10,2013-08-20 07:08:00,
2013-08-20 03:23:00,75.9,74.0,30.03,SSE,153,0.0,0.0,95,0.00,,,0.00,0,weatherlink.com 1.10,2013-08-20 07:23:00,
2013-08-20 03:38:00,75.4,74.0,30.03,SSE,153,0.0,0.0,94,0.00,,,0.00,0,weatherlink.com 1.10,2013-08-20 07:38:00,
2013-08-20 03:53:00,75.1,74.0,30.04,SSE,153,0.0,0.0,95,0.00,,,0.00,0,weatherlink.com 1.10,2013-08-20 07:53:00,
2013-08-20 04:08:00,74.9,74.0,30.03,SSE,153,0.0,0.0,96,0.00,,,0.00,0,weatherlink.com 1.10,2013-08-20 08:08:00,
2013-08-20 04:23:00,74.7,74.0,30.03,SSE,153,0.0,0.0,96,0.00,,,0.00,0,weatherlink.com 1.10,2013-08-20 08:23:00,
2013-08-20 04:38:00,74.6,73.0,30.03,SSE,153,0.0,0.0,96,0.00,,,0.00,0,weatherlink.com 1.10,2013-08-20 08:38:00,
2013-08-20 04:53:00,74.3,73.0,30.03,SSE,153,0.0,0.0,97,0.00,,,0.00,0,weatherlink.com 1.10,2013-08-20 08:53:00,
2013-08-20 05:08:00,74.3,73.0,30.03,SSE,153,0.0,0.0,97,0.00,,,0.00,0,weatherlink.com 1.10,2013-08-20 09:08:00,
2013-08-20 05:23:00,74.2,73.0,30.03,SSE,153,0.0,0.0,97,0.00,,,0.00,0,weatherlink.com 1.10,2013-08-20 09:23:00,
2013-08-20 05:38:00,74.1,73.0,30.03,SSE,153,0.0,0.0,97,0.00,,,0.00,0,weatherlink.com 1.10,2013-08-20 09:38:00,
2013-08-20 05:53:00,74.2,74.0,30.03,SSE,153,0.0,2.0,98,0.00,,,0.00,0,weatherlink.com 1.10,2013-08-20 09:53:00,
2013-08-20 06:08:00,74.1,73.0,30.03,SSE,153,0.0,0.0,97,0.00,,,0.00,0,weatherlink.com 1.10,2013-08-20 10:08:00,
2013-08-20 06:23:00,73.9,73.0,30.03,SSE,153,0.0,0.0,98,0.00,,,0.00,0,weatherlink.com 1.10,2013-08-20 10:23:00,
2013-08-20 06:38:00,73.7,73.0,30.04,SSE,153,0.0,0.0,97,0.00,,,0.00,0,weatherlink.com 1.10,2013-08-20 10:38:00,
2013-08-20 06:53:00,73.5,73.0,30.04,SSE,153,0.0,0.0,97,0.00,,,0.00,0,weatherlink.com 1.10,2013-08-20 10:53:00,
2013-08-20 07:08:00,73.6,73.0,30.04,SSE,153,0.0,0.0,98,0.00,,,0.00,9,weatherlink.com 1.10,2013-08-20 11:08:00,
2013-08-20 07:23:00,73.7,73.0,30.05,SSE,153,0.0,0.0,98,0.00,,,0.00,14,weatherlink.com 1.10,2013-08-20 11:23:00,
2013-08-20 07:38:00,73.8,73.0,30.05,SSE,153,0.0,0.0,98,0.00,,,0.00,23,weatherlink.com 1.10,2013-08-20 11:38:00,
2013-08-20 07:54:00,74.4,74.0,30.06,SSE,153,0.0,0.0,99,0.00,,,0.00,28,weatherlink.com 1.10,2013-08-20 11:54:00,
2013-08-20 08:09:00,75.3,75.0,30.06,SSE,153,0.0,0.0,99,0.00,,,0.00,32,weatherlink.com 1.10,2013-08-20 12:09:00,
2013-08-20 08:25:00,76.8,77.0,30.06,SSE,153,0.0,0.0,99,0.00,,,0.00,39,weatherlink.com 1.10,2013-08-20 12:25:00,
2013-08-20 08:39:00,78.2,78.0,30.07,SSE,153,0.0,0.0,99,0.00,,,0.00,58,weatherlink.com 1.10,2013-08-20 12:39:00,
2013-08-20 08:54:00,79.2,79.0,30.07,SSE,153,2.0,6.0,98,0.00,,,0.00,83,weatherlink.com 1.10,2013-08-20 12:54:00,
2013-08-20 09:09:00,80.8,79.0,30.07,SSE,153,2.0,3.0,94,0.00,,,0.00,135,weatherlink.com 1.10,2013-08-20 13:09:00,
2013-08-20 09:24:00,82.5,78.0,30.08,SSE,153,2.0,8.0,86,0.00,,,0.00,185,weatherlink.com 1.10,2013-08-20 13:24:00,
2013-08-20 09:39:00,83.1,78.0,30.09,SSE,162,0.0,8.0,84,0.00,,,0.00,163,weatherlink.com 1.10,2013-08-20 13:39:00,
2013-08-20 09:54:00,83.6,78.0,30.09,SE,146,2.0,5.0,83,0.00,,,0.00,156,weatherlink.com 1.10,2013-08-20 13:54:00,
2013-08-20 10:09:00,85.3,79.0,30.09,SE,136,4.0,9.0,80,0.00,,,0.00,642,weatherlink.com 1.10,2013-08-20 14:09:00,
2013-08-20 10:24:00,86.1,78.0,30.10,SSE,151,5.0,9.0,77,0.00,,,0.00,193,weatherlink.com 1.10,2013-08-20 14:24:00,
2013-08-20 10:39:00,87.2,79.0,30.11,East,92,8.0,8.0,76,0.00,,,0.00,863,weatherlink.com 1.10,2013-08-20 14:39:00,
2013-08-20 10:54:00,87.5,79.0,30.11,South,184,3.0,9.0,75,0.00,,,0.00,239,weatherlink.com 1.10,2013-08-20 14:54:00,
2013-08-20 11:09:00,88.1,78.0,30.11,ESE,103,0.0,9.0,72,0.00,,,0.00,816,weatherlink.com 1.10,2013-08-20 15:09:00,
2013-08-20 11:24:00,87.6,78.0,30.11,SE,143,3.0,11.0,73,0.00,,,0.00,918,weatherlink.com 1.10,2013-08-20 15:24:00,
2013-08-20 11:39:00,89.0,79.0,30.11,ESE,102,7.0,10.0,73,0.00,,,0.00,916,weatherlink.com 1.10,2013-08-20 15:39:00,
2013-08-20 11:54:00,89.3,78.0,30.11,SSE,153,9.0,14.0,70,0.00,,,0.00,889,weatherlink.com 1.10,2013-08-20 15:54:00,
2013-08-20 12:09:00,89.6,77.0,30.11,East,94,4.0,11.0,67,0.00,,,0.00,882,weatherlink.com 1.10,2013-08-20 16:09:00,
2013-08-20 12:24:00,89.3,79.0,30.11,SSE,152,4.0,9.0,71,0.00,,,0.00,928,weatherlink.com 1.10,2013-08-20 16:24:00,
2013-08-20 12:39:00,89.4,78.0,30.11,SSE,150,8.0,12.0,70,0.00,,,0.00,916,weatherlink.com 1.10,2013-08-20 16:39:00,
2013-08-20 12:54:00,89.3,79.0,30.11,East,96,8.0,13.0,72,0.00,,,0.00,932,weatherlink.com 1.10,2013-08-20 16:54:00,
2013-08-20 13:09:00,89.5,78.0,30.10,ESE,118,2.0,12.0,69,0.00,,,0.00,935,weatherlink.com 1.10,2013-08-20 17:09:00,
2013-08-20 13:24:00,89.9,78.0,30.10,SSE,149,6.0,11.0,69,0.00,,,0.00,926,weatherlink.com 1.10,2013-08-20 17:24:00,
2013-08-20 13:39:00,89.8,79.0,30.09,SE,135,8.0,13.0,70,0.00,,,0.00,928,weatherlink.com 1.10,2013-08-20 17:39:00,
2013-08-20 13:54:00,89.2,79.0,30.09,SE,129,2.0,12.0,71,0.00,,,0.00,925,weatherlink.com 1.10,2013-08-20 17:54:00,
2013-08-20 14:09:00,89.4,79.0,30.09,SSE,149,8.0,13.0,71,0.00,,,0.00,912,weatherlink.com 1.10,2013-08-20 18:09:00,
2013-08-20 14:24:00,89.6,79.0,30.09,East,95,1.0,10.0,72,0.00,,,0.00,918,weatherlink.com 1.10,2013-08-20 18:24:00,
2013-08-20 14:39:00,89.7,79.0,30.07,East,95,6.0,13.0,71,0.00,,,0.00,918,weatherlink.com 1.10,2013-08-20 18:39:00,
2013-08-20 14:54:00,89.1,77.0,30.07,ESE,110,3.0,17.0,68,0.00,,,0.00,863,weatherlink.com 1.10,2013-08-20 18:54:00,
2013-08-20 15:09:00,90.0,78.0,30.07,SSE,155,12.0,15.0,68,0.00,,,0.00,846,weatherlink.com 1.10,2013-08-20 19:09:00,
2013-08-20 15:24:00,89.8,78.0,30.06,East,90,4.0,13.0,69,0.00,,,0.00,831,weatherlink.com 1.10,2013-08-20 19:24:00,
2013-08-20 15:39:00,89.8,79.0,30.05,ESE,121,1.0,12.0,70,0.00,,,0.00,840,weatherlink.com 1.10,2013-08-20 19:39:00,
2013-08-20 15:55:00,88.5,78.0,30.05,NE,49,3.0,12.0,72,0.00,,,0.00,844,weatherlink.com 1.10,2013-08-20 19:55:00,
2013-08-20 16:10:00,88.8,77.0,30.05,East,93,3.0,14.0,68,0.00,,,0.00,796,weatherlink.com 1.10,2013-08-20 20:10:00,
2013-08-20 16:26:00,88.2,77.0,30.05,SE,141,7.0,13.0,70,0.00,,,0.00,765,weatherlink.com 1.10,2013-08-20 20:26:00,
2013-08-20 16:40:00,88.3,77.0,30.05,East,96,3.0,16.0,70,0.00,,,0.00,654,weatherlink.com 1.10,2013-08-20 20:40:00,
2013-08-20 16:55:00,88.5,78.0,30.05,ESE,115,2.0,14.0,72,0.00,,,0.00,584,weatherlink.com 1.10,2013-08-20 20:55:00,
2013-08-20 17:10:00,88.5,78.0,30.06,SE,132,11.0,12.0,71,0.00,,,0.00,533,weatherlink.com 1.10,2013-08-20 21:10:00,
2013-08-20 17:25:00,87.8,77.0,30.05,SE,138,3.0,14.0,71,0.00,,,0.00,504,weatherlink.com 1.10,2013-08-20 21:25:00,
2013-08-20 17:40:00,88.0,77.0,30.05,SSE,161,11.0,15.0,70,0.00,,,0.00,438,weatherlink.com 1.10,2013-08-20 21:40:00,
2013-08-20 17:55:00,87.5,78.0,30.05,ESE,111,4.0,10.0,73,0.00,,,0.00,385,weatherlink.com 1.10,2013-08-20 21:55:00,
2013-08-20 18:10:00,86.8,77.0,30.05,SE,135,9.0,10.0,73,0.00,,,0.00,352,weatherlink.com 1.10,2013-08-20 22:10:00,
2013-08-20 18:25:00,86.4,77.0,30.05,SE,140,9.0,12.0,73,0.00,,,0.00,281,weatherlink.com 1.10,2013-08-20 22:25:00,
2013-08-20 18:40:00,85.7,78.0,30.05,ESE,121,3.0,12.0,77,0.00,,,0.00,183,weatherlink.com 1.10,2013-08-20 22:40:00,
2013-08-20 18:55:00,84.8,78.0,30.05,SE,138,4.0,11.0,79,0.00,,,0.00,142,weatherlink.com 1.10,2013-08-20 22:55:00,
2013-08-20 19:10:00,84.2,77.0,30.06,East,88,7.0,10.0,79,0.00,,,0.00,58,weatherlink.com 1.10,2013-08-20 23:10:00,
2013-08-20 19:25:00,83.2,77.0,30.07,SE,126,4.0,9.0,82,0.00,,,0.00,12,weatherlink.com 1.10,2013-08-20 23:25:00,
2013-08-20 19:40:00,82.8,77.0,30.07,East,101,2.0,10.0,83,0.00,,,0.00,7,weatherlink.com 1.10,2013-08-20 23:40:00,
2013-08-20 19:55:00,82.3,77.0,30.08,ESE,121,1.0,7.0,84,0.00,,,0.00,0,weatherlink.com 1.10,2013-08-20 23:55:00,
2013-08-20 20:10:00,82.0,77.0,30.09,SE,128,0.0,7.0,84,0.00,,,0.00,0,weatherlink.com 1.10,2013-08-21 00:10:00,
2013-08-20 20:25:00,81.8,77.0,30.10,SE,136,0.0,7.0,85,0.00,,,0.00,0,weatherlink.com 1.10,2013-08-21 00:25:00,
2013-08-20 20:40:00,81.4,77.0,30.11,SE,136,0.0,5.0,85,0.00,,,0.00,0,weatherlink.com 1.10,2013-08-21 00:40:00,
2013-08-20 20:55:00,81.2,76.0,30.10,SE,127,0.0,5.0,85,0.00,,,0.00,0,weatherlink.com 1.10,2013-08-21 00:55:00,
2013-08-20 21:10:00,81.1,76.0,30.11,SE,128,0.0,5.0,85,0.00,,,0.00,0,weatherlink.com 1.10,2013-08-21 01:10:00,
2013-08-20 21:25:00,81.1,77.0,30.11,SE,128,0.0,5.0,86,0.00,,,0.00,0,weatherlink.com 1.10,2013-08-21 01:25:00,
2013-08-20 21:40:00,81.0,77.0,30.11,SE,128,0.0,0.0,86,0.00,,,0.00,0,weatherlink.com 1.10,2013-08-21 01:40:00,
2013-08-20 21:55:00,80.7,77.0,30.11,SE,128,0.0,2.0,87,0.00,,,0.00,0,weatherlink.com 1.10,2013-08-21 01:55:00,
2013-08-20 22:10:00,80.6,77.0,30.12,SE,128,0.0,7.0,88,0.00,,,0.00,0,weatherlink.com 1.10,2013-08-21 02:10:00,
2013-08-20 22:25:00,80.4,77.0,30.12,SE,128,0.0,0.0,88,0.00,,,0.00,0,weatherlink.com 1.10,2013-08-21 02:25:00,
2013-08-20 22:40:00,79.9,77.0,30.13,SE,128,0.0,0.0,89,0.00,,,0.00,0,weatherlink.com 1.10,2013-08-21 02:40:00,
2013-08-20 22:55:00,79.4,76.0,30.13,SE,128,0.0,0.0,90,0.00,,,0.00,0,weatherlink.com 1.10,2013-08-21 02:55:00,
2013-08-20 23:11:00,79.1,76.0,30.13,SE,128,0.0,0.0,91,0.00,,,0.00,0,weatherlink.com 1.10,2013-08-21 03:11:00,
2013-08-20 23:25:00,79.1,77.0,30.12,SE,128,0.0,0.0,92,0.00,,,0.00,0,weatherlink.com 1.10,2013-08-21 03:25:00,
2013-08-20 23:40:00,79.0,77.0,30.13,SE,128,0.0,0.0,92,0.00,,,0.00,0,weatherlink.com 1.10,2013-08-21 03:40:00,
2013-08-20 23:55:00,78.7,76.0,30.12,SE,128,0.0,0.0,92,0.00,,,0.00,0,weatherlink.com 1.10,2013-08-21 03:55:00,